createdAt,value
2018-08-16T00:01:47.989Z,17.21
2018-08-16T00:04:14.486Z,16.72
2018-08-16T00:06:41.394Z,16.33
2018-08-16T00:09:07.899Z,16.17
2018-08-16T00:11:34.401Z,16.14
2018-08-16T00:14:00.921Z,16.11
2018-08-16T00:16:27.838Z,16.06
2018-08-16T00:18:54.322Z,16.01
2018-08-16T00:21:21.660Z,15.98
2018-08-16T00:23:48.586Z,16.02
2018-08-16T00:26:15.056Z,16.05
2018-08-16T00:28:41.537Z,16.07
2018-08-16T00:31:08.021Z,16.07
2018-08-16T00:33:34.780Z,16.10
2018-08-16T00:36:01.233Z,16.06
2018-08-16T00:38:27.738Z,16.04
2018-08-16T00:40:54.846Z,16.00
2018-08-16T00:43:21.773Z,15.91
2018-08-16T00:45:48.233Z,15.93
2018-08-16T00:48:14.681Z,15.93
2018-08-16T00:50:41.445Z,15.82
2018-08-16T00:53:09.055Z,15.78
2018-08-16T00:55:35.539Z,15.80
2018-08-16T00:58:02.409Z,15.83
2018-08-16T01:00:28.856Z,15.91
2018-08-16T01:02:55.909Z,16.02
2018-08-16T01:05:22.385Z,16.06
2018-08-16T01:07:49.139Z,15.95
2018-08-16T01:10:17.671Z,15.88
2018-08-16T01:12:44.125Z,15.78
2018-08-16T01:15:10.619Z,15.81
2018-08-16T01:17:38.391Z,15.84
2018-08-16T01:20:05.630Z,15.91
2018-08-16T01:22:32.073Z,15.82
2018-08-16T01:24:58.531Z,15.83
2018-08-16T01:27:25.334Z,15.75
2018-08-16T01:29:51.781Z,15.74
2018-08-16T01:32:18.278Z,15.69
2018-08-16T01:34:44.733Z,15.58
2018-08-16T01:37:11.649Z,15.63
2018-08-16T01:39:38.130Z,15.60
2018-08-16T01:42:04.623Z,15.63
2018-08-16T01:44:31.090Z,15.59
2018-08-16T01:46:57.922Z,15.65
2018-08-16T01:49:24.385Z,15.66
2018-08-16T01:51:50.852Z,15.51
2018-08-16T01:54:17.341Z,15.33
2018-08-16T01:56:44.236Z,15.29
2018-08-16T01:59:11.363Z,15.25
2018-08-16T02:01:37.867Z,15.12
2018-08-16T02:04:04.551Z,15.15
2018-08-16T02:06:31.425Z,15.27
2018-08-16T02:08:58.534Z,15.42
2018-08-16T02:11:25.778Z,15.41
2018-08-16T02:13:52.275Z,15.40
2018-08-16T02:16:19.346Z,15.46
2018-08-16T02:18:45.871Z,15.56
2018-08-16T02:28:07.316Z,15.62
2018-08-16T02:30:33.901Z,15.42
2018-08-16T02:33:00.794Z,15.18
2018-08-16T02:35:27.432Z,15.09
2018-08-16T02:37:53.914Z,15.16
2018-08-16T02:40:20.381Z,15.24
2018-08-16T02:42:47.304Z,15.27
2018-08-16T02:45:13.755Z,15.09
2018-08-16T02:47:40.211Z,15.00
2018-08-16T02:50:06.664Z,15.11
2018-08-16T02:52:33.541Z,15.17
2018-08-16T02:54:59.983Z,15.21
2018-08-16T02:57:26.469Z,15.17
2018-08-16T02:59:52.925Z,15.22
2018-08-16T03:02:19.809Z,15.17
2018-08-16T03:04:46.275Z,15.25
2018-08-16T03:07:12.725Z,15.24
2018-08-16T03:09:39.215Z,15.16
2018-08-16T03:12:07.045Z,15.07
2018-08-16T03:14:33.526Z,14.98
2018-08-16T03:17:00.003Z,15.14
2018-08-16T03:19:26.459Z,15.18
2018-08-16T03:21:53.317Z,15.09
2018-08-16T03:24:19.777Z,14.83
2018-08-16T03:26:46.229Z,14.60
2018-08-16T03:29:12.673Z,14.70
2018-08-16T03:31:39.628Z,14.86
2018-08-16T03:34:06.139Z,15.04
2018-08-16T03:36:32.627Z,15.05
2018-08-16T03:38:59.550Z,15.15
2018-08-16T03:41:26.033Z,15.33
2018-08-16T03:43:52.481Z,15.46
2018-08-16T03:46:19.272Z,15.46
2018-08-16T03:48:45.762Z,15.18
2018-08-16T03:51:12.210Z,14.84
2018-08-16T03:53:38.698Z,14.61
2018-08-16T03:56:05.189Z,14.54
2018-08-16T03:58:31.654Z,14.50
2018-08-16T04:00:58.461Z,14.59
2018-08-16T04:03:26.005Z,14.55
2018-08-16T04:05:52.480Z,14.58
2018-08-16T04:08:18.942Z,14.54
2018-08-16T04:10:45.853Z,14.53
2018-08-16T04:13:12.344Z,14.63
2018-08-16T04:15:38.806Z,14.93
2018-08-16T04:18:05.289Z,14.99
2018-08-16T04:20:32.195Z,15.05
2018-08-16T04:22:58.652Z,14.96
2018-08-16T04:25:26.153Z,14.93
2018-08-16T04:27:53.100Z,14.81
2018-08-16T04:30:19.559Z,14.73
2018-08-16T04:32:46.017Z,14.74
2018-08-16T04:35:12.912Z,14.75
2018-08-16T04:37:39.347Z,14.81
2018-08-16T04:40:05.850Z,14.87
2018-08-16T04:42:32.820Z,15.02
2018-08-16T04:44:59.295Z,15.17
2018-08-16T04:47:25.749Z,15.23
2018-08-16T04:49:52.618Z,15.07
2018-08-16T04:52:19.096Z,15.08
2018-08-16T04:54:45.578Z,15.18
2018-08-16T04:57:12.433Z,15.24
2018-08-16T04:59:39.163Z,15.41
2018-08-16T05:02:05.720Z,15.57
2018-08-16T05:04:32.753Z,15.73
2018-08-16T05:07:00.301Z,15.85
2018-08-16T05:09:26.832Z,15.94
2018-08-16T05:11:53.845Z,16.03
2018-08-16T05:14:20.440Z,16.08
2018-08-16T05:16:47.112Z,16.13
2018-08-16T05:19:13.952Z,16.17
2018-08-16T05:21:40.517Z,16.17
2018-08-16T05:24:07.025Z,16.12
2018-08-16T05:26:34.120Z,16.10
2018-08-16T05:29:00.717Z,16.02
2018-08-16T05:31:27.516Z,15.90
2018-08-16T05:33:53.969Z,15.69
2018-08-16T05:36:20.442Z,15.42
2018-08-16T05:38:47.333Z,15.05
2018-08-16T05:41:13.825Z,14.90
2018-08-16T05:43:40.343Z,14.88
2018-08-16T05:46:07.121Z,14.92
2018-08-16T05:48:34.165Z,14.99
2018-08-16T05:51:00.670Z,15.16
2018-08-16T05:53:27.479Z,15.32
2018-08-16T05:55:54.017Z,15.46
2018-08-16T05:58:20.521Z,15.57
2018-08-16T06:00:47.370Z,15.64
2018-08-16T06:03:13.833Z,15.70
2018-08-16T06:05:40.328Z,15.78
2018-08-16T06:08:07.290Z,15.84
2018-08-16T06:10:33.770Z,15.86
2018-08-16T06:13:00.255Z,15.91
2018-08-16T06:15:27.237Z,16.05
2018-08-16T06:17:54.407Z,16.16
2018-08-16T06:20:20.874Z,16.25
2018-08-16T06:22:47.748Z,16.36
2018-08-16T06:25:14.217Z,16.46
2018-08-16T06:27:40.664Z,16.57
2018-08-16T06:30:07.438Z,16.70
2018-08-16T06:32:33.939Z,16.87
2018-08-16T06:35:00.426Z,17.03
2018-08-16T06:37:27.321Z,17.04
2018-08-16T06:39:53.802Z,17.16
2018-08-16T06:42:20.265Z,17.27
2018-08-16T06:44:47.062Z,17.37
2018-08-16T06:47:13.566Z,17.49
2018-08-16T06:49:40.041Z,17.61
2018-08-16T06:52:06.952Z,17.77
2018-08-16T06:54:33.406Z,17.96
2018-08-16T06:56:59.855Z,18.13
2018-08-16T06:59:26.650Z,18.27
2018-08-16T07:01:54.151Z,18.39
2018-08-16T07:04:20.630Z,18.45
2018-08-16T07:06:47.572Z,18.58
2018-08-16T07:09:14.048Z,18.69
2018-08-16T07:11:40.521Z,18.80
2018-08-16T07:14:07.545Z,18.94
2018-08-16T07:16:34.000Z,19.07
2018-08-16T07:19:00.498Z,19.13
2018-08-16T07:21:27.446Z,19.28
2018-08-16T07:23:53.915Z,19.43
2018-08-16T07:26:20.395Z,19.58
2018-08-16T07:28:47.321Z,19.66
2018-08-16T07:31:13.784Z,19.73
2018-08-16T07:33:40.233Z,20.01
2018-08-16T07:36:07.018Z,20.16
2018-08-16T07:38:33.476Z,20.18
2018-08-16T07:40:59.978Z,20.31
2018-08-16T07:43:26.738Z,20.44
2018-08-16T07:45:53.641Z,20.64
2018-08-16T07:48:20.151Z,20.84
2018-08-16T07:50:48.778Z,20.93
2018-08-16T07:53:15.300Z,21.03
2018-08-16T07:55:42.007Z,21.04
2018-08-16T07:58:08.954Z,21.14
2018-08-16T08:00:35.526Z,21.24
2018-08-16T08:03:02.019Z,21.20
2018-08-16T08:05:29.081Z,21.30
2018-08-16T08:07:55.546Z,21.40
2018-08-16T08:10:22.034Z,21.48
2018-08-16T08:12:49.004Z,21.53
2018-08-16T08:15:15.510Z,21.72
2018-08-16T08:17:42.106Z,21.84
2018-08-16T08:20:10.013Z,21.94
2018-08-16T08:22:36.544Z,22.03
2018-08-16T08:25:03.086Z,22.24
2018-08-16T08:27:29.593Z,22.44
2018-08-16T08:29:56.073Z,22.43
2018-08-16T08:32:23.858Z,22.53
2018-08-16T08:34:50.315Z,22.61
2018-08-16T08:37:17.479Z,22.68
2018-08-16T08:39:44.487Z,22.84
2018-08-16T08:42:11.979Z,22.85
2018-08-16T08:44:38.482Z,22.86
2018-08-16T08:47:05.630Z,22.98
2018-08-16T08:49:32.143Z,22.99
2018-08-16T08:51:58.641Z,23.17
2018-08-16T08:54:25.570Z,23.22
2018-08-16T08:56:52.265Z,23.03
2018-08-16T08:59:18.766Z,23.12
2018-08-16T09:01:46.357Z,23.11
2018-08-16T09:04:12.810Z,23.18
2018-08-16T09:06:39.577Z,23.04
2018-08-16T09:09:07.689Z,23.01
2018-08-16T09:11:34.177Z,23.09
2018-08-16T09:14:00.671Z,23.37
2018-08-16T09:16:28.185Z,23.63
2018-08-16T09:18:54.747Z,23.79
2018-08-16T09:21:21.249Z,23.67
2018-08-16T09:23:48.081Z,23.74
2018-08-16T09:26:14.584Z,23.81
2018-08-16T09:28:42.547Z,24.03
2018-08-16T09:31:11.056Z,24.25
2018-08-16T09:33:37.512Z,24.29
2018-08-16T09:36:04.114Z,24.43
2018-08-16T09:38:31.013Z,24.62
2018-08-16T09:40:58.475Z,24.37
2018-08-16T09:43:24.962Z,24.32
2018-08-16T09:45:51.969Z,24.19
2018-08-16T09:48:18.474Z,24.16
2018-08-16T09:50:44.968Z,24.44
2018-08-16T09:53:11.833Z,24.47
2018-08-16T09:55:38.339Z,24.70
2018-08-16T09:58:04.939Z,24.91
2018-08-16T10:00:31.791Z,24.96
2018-08-16T10:02:58.522Z,24.98
2018-08-16T10:05:26.693Z,24.92
2018-08-16T10:07:54.571Z,25.13
2018-08-16T10:10:21.074Z,25.29
2018-08-16T10:12:47.590Z,25.18
2018-08-16T10:15:14.593Z,25.09
2018-08-16T10:17:41.118Z,25.06
2018-08-16T10:22:48.893Z,25.53
2018-08-16T10:25:15.388Z,25.30
2018-08-16T10:27:41.885Z,25.53
2018-08-16T10:30:10.075Z,25.57
2018-08-16T10:32:36.568Z,25.53
2018-08-16T10:35:03.060Z,25.55
2018-08-16T10:37:31.098Z,25.71
2018-08-16T10:39:57.573Z,25.70
2018-08-16T10:42:24.589Z,25.70
2018-08-16T10:44:51.577Z,25.77
2018-08-16T10:47:18.056Z,26.11
2018-08-16T10:49:45.492Z,26.26
2018-08-16T10:52:14.223Z,26.02
2018-08-16T10:54:40.716Z,25.85
2018-08-16T10:57:07.214Z,26.04
2018-08-16T10:59:34.269Z,26.39
2018-08-16T11:02:00.781Z,26.39
2018-08-16T11:04:28.317Z,26.53
2018-08-16T11:06:55.160Z,26.52
2018-08-16T11:09:21.631Z,26.59
2018-08-16T11:11:48.154Z,26.54
2018-08-16T11:14:15.310Z,26.57
2018-08-16T11:16:42.381Z,26.49
2018-08-16T11:19:09.834Z,26.56
2018-08-16T11:21:39.988Z,26.65
2018-08-16T11:24:06.459Z,26.95
2018-08-16T11:26:34.394Z,27.20
2018-08-16T11:29:03.427Z,27.23
2018-08-16T11:31:29.900Z,27.23
2018-08-16T11:33:56.373Z,27.12
2018-08-16T11:36:23.166Z,27.12
2018-08-16T11:38:50.605Z,27.27
2018-08-16T11:41:17.277Z,27.47
2018-08-16T11:43:45.154Z,27.50
2018-08-16T11:46:11.642Z,27.05
2018-08-16T11:48:38.137Z,27.30
2018-08-16T11:51:05.088Z,27.34
2018-08-16T11:53:32.244Z,27.44
2018-08-16T11:55:58.701Z,27.72
2018-08-16T11:58:25.165Z,27.90
2018-08-16T12:00:51.626Z,28.14
2018-08-16T12:03:18.487Z,27.98
2018-08-16T12:05:44.946Z,27.74
2018-08-16T12:08:11.412Z,27.41
2018-08-16T12:10:38.147Z,27.47
2018-08-16T12:13:04.603Z,27.68
2018-08-16T12:15:31.821Z,27.95
2018-08-16T12:20:29.737Z,28.55
2018-08-16T12:22:56.993Z,28.41
2018-08-16T12:25:23.532Z,28.11
2018-08-16T12:27:51.568Z,28.23
2018-08-16T12:30:19.949Z,28.34
2018-08-16T12:32:46.578Z,28.15
2018-08-16T12:35:14.346Z,28.47
2018-08-16T12:37:41.583Z,28.41
2018-08-16T12:40:09.967Z,28.34
2018-08-16T12:42:36.734Z,28.37
2018-08-16T12:45:04.370Z,28.47
2018-08-16T12:47:32.161Z,27.96
2018-08-16T12:49:59.523Z,28.24
2018-08-16T12:52:26.290Z,28.95
2018-08-16T12:54:55.681Z,29.24
2018-08-16T12:57:22.490Z,29.54
2018-08-16T12:59:50.105Z,29.40
2018-08-16T13:02:17.247Z,29.54
2018-08-16T13:04:45.354Z,29.63
2018-08-16T13:07:11.804Z,29.99
2018-08-16T13:09:39.902Z,29.93
2018-08-16T13:12:07.566Z,29.38
2018-08-16T13:14:35.026Z,28.62
2018-08-16T13:17:01.507Z,28.61
2018-08-16T13:19:28.318Z,28.77
2018-08-16T13:21:54.805Z,29.10
2018-08-16T13:24:21.288Z,29.19
2018-08-16T13:26:48.629Z,29.66
2018-08-16T13:29:16.084Z,29.98
2018-08-16T13:31:42.590Z,29.84
2018-08-16T13:34:09.376Z,29.47
2018-08-16T13:36:36.484Z,29.59
2018-08-16T13:39:03.496Z,29.23
2018-08-16T13:41:31.173Z,29.18
2018-08-16T13:43:57.656Z,29.08
2018-08-16T13:46:25.630Z,28.93
2018-08-16T13:48:52.577Z,29.20
2018-08-16T13:51:20.050Z,29.11
2018-08-16T13:53:47.530Z,28.77
2018-08-16T13:56:14.310Z,28.59
2018-08-16T13:58:40.801Z,28.79
2018-08-16T14:01:08.464Z,29.11
2018-08-16T14:03:35.250Z,29.35
2018-08-16T14:06:02.489Z,30.10
2018-08-16T14:08:29.021Z,30.55
2018-08-16T14:10:55.817Z,30.61
2018-08-16T14:13:22.320Z,30.79
2018-08-16T14:15:48.817Z,30.99
2018-08-16T14:18:15.565Z,31.18
2018-08-16T14:20:43.650Z,31.00
2018-08-16T14:23:10.109Z,31.14
2018-08-16T14:25:37.491Z,31.46
2018-08-16T14:28:04.028Z,31.94
2018-08-16T14:30:31.594Z,32.73
2018-08-16T14:32:58.509Z,32.12
2018-08-16T14:35:25.029Z,31.56
2018-08-16T14:37:52.256Z,31.66
2018-08-16T14:40:20.030Z,31.55
2018-08-16T14:42:46.481Z,32.45
2018-08-16T14:45:12.969Z,31.67
2018-08-16T14:47:39.732Z,31.15
2018-08-16T14:50:06.235Z,31.15
2018-08-16T14:52:32.707Z,31.18
2018-08-16T14:54:59.465Z,31.39
2018-08-16T14:57:25.954Z,31.20
2018-08-16T14:59:52.433Z,31.23
2018-08-16T15:02:19.349Z,31.60
2018-08-16T15:04:45.821Z,31.76
2018-08-16T15:07:12.308Z,31.68
2018-08-16T15:09:40.540Z,31.13
2018-08-16T15:12:07.034Z,30.95
2018-08-16T15:14:34.467Z,30.90
2018-08-16T15:17:02.124Z,31.22
2018-08-16T15:19:28.705Z,31.43
2018-08-16T15:21:55.387Z,31.79
2018-08-16T15:24:22.196Z,31.50
2018-08-16T15:26:48.701Z,31.13
2018-08-16T15:29:15.183Z,31.36
2018-08-16T15:31:41.994Z,31.23
2018-08-16T15:34:09.471Z,30.73
2018-08-16T15:36:35.945Z,30.84
2018-08-16T15:39:03.640Z,31.41
2018-08-16T15:41:33.128Z,31.85
2018-08-16T15:43:59.784Z,32.00
2018-08-16T15:46:26.627Z,32.61
2018-08-16T15:48:53.122Z,32.39
2018-08-16T15:51:22.758Z,31.49
2018-08-16T15:53:49.673Z,31.91
2018-08-16T15:56:16.249Z,32.28
2018-08-16T15:58:43.521Z,32.89
2018-08-16T16:01:10.317Z,32.71
2018-08-16T16:03:36.835Z,32.80
2018-08-16T16:06:04.028Z,32.33
2018-08-16T16:08:31.118Z,32.32
2018-08-16T16:13:34.169Z,32.44
2018-08-16T16:16:00.757Z,31.77
2018-08-16T16:21:00.349Z,31.95
2018-08-16T16:23:27.837Z,31.41
2018-08-16T16:25:54.334Z,30.65
2018-08-16T16:28:21.214Z,30.11
2018-08-16T16:30:47.695Z,30.45
2018-08-16T16:33:17.854Z,30.83
2018-08-16T16:35:44.662Z,31.43
2018-08-16T16:38:12.271Z,31.43
2018-08-16T16:40:39.447Z,31.77
2018-08-16T16:43:06.402Z,31.81
2018-08-16T16:45:33.057Z,31.77
2018-08-16T16:48:01.267Z,31.49
2018-08-16T16:50:30.957Z,31.11
2018-08-16T16:52:58.582Z,30.42
2018-08-16T16:55:26.952Z,30.54
2018-08-16T16:57:55.475Z,31.29
2018-08-16T17:00:24.398Z,31.66
2018-08-16T17:02:55.450Z,31.60
2018-08-16T17:05:23.265Z,31.46
2018-08-16T17:07:50.633Z,31.59
2018-08-16T17:10:17.623Z,31.15
2018-08-16T17:12:44.361Z,31.24
2018-08-16T17:15:15.504Z,31.76
2018-08-16T17:17:44.048Z,31.41
2018-08-16T17:20:13.442Z,30.95
2018-08-16T17:22:40.491Z,31.12
2018-08-16T17:25:07.004Z,30.86
2018-08-16T17:27:35.009Z,30.31
2018-08-16T17:30:01.469Z,30.01
2018-08-16T17:32:27.966Z,29.54
2018-08-16T17:34:55.731Z,29.14
2018-08-16T17:37:22.654Z,29.55
2018-08-16T17:39:49.435Z,30.17
2018-08-16T17:42:16.232Z,30.47
2018-08-16T17:44:42.744Z,30.59
2018-08-16T17:47:09.748Z,30.45
2018-08-16T17:49:37.099Z,30.05
2018-08-16T17:52:03.592Z,30.12
2018-08-16T17:54:32.102Z,29.75
2018-08-16T17:56:59.944Z,29.68
2018-08-16T17:59:26.402Z,30.02
2018-08-16T18:01:55.261Z,30.08
2018-08-16T18:04:23.076Z,29.76
2018-08-16T18:06:50.345Z,29.04
2018-08-16T18:09:17.465Z,28.22
2018-08-16T18:11:44.336Z,28.10
2018-08-16T18:14:12.474Z,28.11
2018-08-16T18:16:38.977Z,28.24
2018-08-16T18:19:08.069Z,28.27
2018-08-16T18:21:34.567Z,27.98
2018-08-16T18:24:02.634Z,27.38
2018-08-16T18:26:29.526Z,26.89
2018-08-16T18:28:58.291Z,26.48
2018-08-16T18:31:25.931Z,26.11
2018-08-16T18:33:52.715Z,25.88
2018-08-16T18:36:19.323Z,25.62
2018-08-16T18:38:46.970Z,25.32
2018-08-16T18:41:14.444Z,25.03
2018-08-16T18:43:43.214Z,24.80
2018-08-16T18:46:09.735Z,24.59
2018-08-16T18:48:36.603Z,24.37
2018-08-16T18:51:03.062Z,24.17
2018-08-16T18:53:30.420Z,23.94
2018-08-16T18:55:57.318Z,23.75
2018-08-16T18:58:24.626Z,23.62
2018-08-16T19:00:51.167Z,23.61
2018-08-16T19:03:17.945Z,23.64
2018-08-16T19:05:44.528Z,23.56
2018-08-16T19:08:12.680Z,23.38
2018-08-16T19:10:39.445Z,23.16
2018-08-16T19:13:05.933Z,22.95
2018-08-16T19:15:32.419Z,22.79
2018-08-16T19:18:02.171Z,22.72
2018-08-16T19:20:28.662Z,22.70
2018-08-16T19:22:55.356Z,22.61
2018-08-16T19:25:22.421Z,22.54
2018-08-16T19:27:48.945Z,22.43
2018-08-16T19:30:15.457Z,22.41
2018-08-16T19:32:43.136Z,22.36
2018-08-16T19:35:10.290Z,22.29
2018-08-16T19:37:36.737Z,22.20
2018-08-16T19:40:04.211Z,22.06
2018-08-16T19:42:30.709Z,22.22
2018-08-16T19:44:58.001Z,22.26
2018-08-16T19:47:25.533Z,22.31
2018-08-16T19:49:52.228Z,22.27
2018-08-16T19:52:18.847Z,22.17
2018-08-16T19:54:46.117Z,22.09
2018-08-16T19:57:12.585Z,22.01
2018-08-16T19:59:40.558Z,21.89
2018-08-16T20:02:07.476Z,21.80
2018-08-16T20:04:35.329Z,21.77
2018-08-16T20:07:01.844Z,21.72
2018-08-16T20:09:29.445Z,21.67
2018-08-16T20:11:56.059Z,21.62
2018-08-16T20:14:22.556Z,21.58
2018-08-16T20:16:50.395Z,21.52
2018-08-16T20:19:17.607Z,21.51
2018-08-16T20:21:44.110Z,21.50
2018-08-16T20:24:11.167Z,21.45
2018-08-16T20:26:37.629Z,21.41
2018-08-16T20:29:04.756Z,21.38
2018-08-16T20:31:31.933Z,21.35
2018-08-16T20:33:59.485Z,21.29
2018-08-16T20:36:25.984Z,21.23
2018-08-16T20:38:52.963Z,21.18
2018-08-16T20:41:20.070Z,21.09
2018-08-16T20:43:47.546Z,21.05
2018-08-16T20:46:14.521Z,21.00
2018-08-16T20:48:41.783Z,20.90
2018-08-16T20:51:08.237Z,20.83
2018-08-16T20:53:37.823Z,20.72
2018-08-16T20:56:04.585Z,20.65
2018-08-16T20:58:31.063Z,20.58
2018-08-16T21:00:58.878Z,20.54
2018-08-16T21:03:25.344Z,20.50
2018-08-16T21:05:52.793Z,20.43
2018-08-16T21:08:20.309Z,20.39
2018-08-16T21:10:46.814Z,20.33
2018-08-16T21:13:16.274Z,20.31
2018-08-16T21:15:46.086Z,20.32
2018-08-16T21:18:15.104Z,20.28
2018-08-16T21:20:41.652Z,20.25
2018-08-16T21:23:12.461Z,20.23
2018-08-16T21:25:39.954Z,20.23
2018-08-16T21:28:06.450Z,20.23
2018-08-16T21:30:33.517Z,20.21
2018-08-16T21:33:00.755Z,20.15
2018-08-16T21:35:28.457Z,20.09
2018-08-16T21:37:58.486Z,20.02
2018-08-16T21:40:25.681Z,19.94
2018-08-16T21:42:52.524Z,19.86
2018-08-16T21:45:20.003Z,19.81
2018-08-16T21:47:47.060Z,19.77
2018-08-16T21:50:14.338Z,19.71
2018-08-16T21:52:41.429Z,19.67
2018-08-16T21:55:08.721Z,19.64
2018-08-16T21:57:35.846Z,19.61
2018-08-16T22:00:02.736Z,19.62
2018-08-16T22:02:29.413Z,19.63
2018-08-16T22:04:58.078Z,19.60
2018-08-16T22:07:24.573Z,19.56
2018-08-16T22:09:53.185Z,19.52
2018-08-16T22:12:20.545Z,19.46
2018-08-16T22:14:48.585Z,19.42
2018-08-16T22:17:15.419Z,19.35
2018-08-16T22:19:42.279Z,19.27
2018-08-16T22:22:12.540Z,19.21
2018-08-16T22:24:39.410Z,19.15
2018-08-16T22:27:06.066Z,19.10
2018-08-16T22:29:33.393Z,19.05
2018-08-16T22:32:03.347Z,19.00
2018-08-16T22:34:30.406Z,18.94
2018-08-16T22:36:57.677Z,18.94
2018-08-16T22:39:25.201Z,18.90
2018-08-16T22:41:53.614Z,18.88
2018-08-16T22:44:20.094Z,18.86
2018-08-16T22:46:46.618Z,18.84
2018-08-16T22:49:13.565Z,18.85
2018-08-16T22:51:40.029Z,18.81
2018-08-16T22:54:06.567Z,18.80
2018-08-16T22:56:33.066Z,18.79
2018-08-16T22:58:59.985Z,18.76
2018-08-16T23:01:26.485Z,18.73
2018-08-16T23:03:54.364Z,18.71
2018-08-16T23:06:21.988Z,18.71
2018-08-16T23:08:48.472Z,18.68
2018-08-16T23:11:14.966Z,18.67
2018-08-16T23:13:41.450Z,18.66
2018-08-16T23:16:09.295Z,18.64
2018-08-16T23:18:35.756Z,18.62
2018-08-16T23:21:02.250Z,18.59
2018-08-16T23:23:28.738Z,18.56
2018-08-16T23:25:55.616Z,18.50
2018-08-16T23:28:22.065Z,18.46
2018-08-16T23:30:49.183Z,18.39
2018-08-16T23:33:16.188Z,18.31
2018-08-16T23:35:43.138Z,18.26
2018-08-16T23:38:09.621Z,18.21
2018-08-16T23:40:36.102Z,18.20
2018-08-16T23:43:02.590Z,18.15
2018-08-16T23:45:29.472Z,18.09
2018-08-16T23:47:55.922Z,18.01
2018-08-16T23:50:22.360Z,17.97
2018-08-16T23:52:48.813Z,17.87
2018-08-16T23:55:16.637Z,17.83
2018-08-16T23:57:43.129Z,17.80
